Sweeny, Texas
Current Conditions -  °F | °C
As of 1:53 AM on Sunday 23 Nov 2014 (Local Time) from KLBX Reporting Station
Clear Clear  
Wind Chill: 60°   Ceiling: Unl
Heat Index: 60°   Visibility: 10mi
Dew Point: 60°   Wind: 8mph
Humidity: 100%   Direction: 210°SSW
Pressure: 29.67"   Gusts: NA
Location:  29.04°N, 95.7°W
Report Text: KLBX 230753Z AUTO 21007KT 10SM CLR 16/16 A2967 RMK AO2 SLP047 T01560156
Loading
Personal Weather Stations






























Interactive Weather Map New forecast layout! Learn more

10-Day Weather Forecast

Advertisements
Track Severe Weather on mobile